sensor_id;sensor_type;location;lat;lon;timestamp;P1;durP1;ratioP1;P2;durP2;ratioP2
18887;SDS011;9576;47.792;9.628;2023-01-04T00:02:06;51.35;;;18.67;;
18887;SDS011;9576;47.792;9.628;2023-01-04T00:05:10;31.63;;;15.55;;
18887;SDS011;9576;47.792;9.628;2023-01-04T00:08:12;42.17;;;19.00;;
18887;SDS011;9576;47.792;9.628;2023-01-04T00:11:14;38.88;;;17.30;;
18887;SDS011;9576;47.792;9.628;2023-01-04T00:14:18;47.28;;;18.40;;
18887;SDS011;9576;47.792;9.628;2023-01-04T00:17:20;39.92;;;18.45;;
18887;SDS011;9576;47.792;9.628;2023-01-04T00:20:23;47.85;;;16.48;;
18887;SDS011;9576;47.792;9.628;2023-01-04T00:23:25;47.13;;;20.63;;
18887;SDS011;9576;47.792;9.628;2023-01-04T00:26:29;59.83;;;20.67;;
18887;SDS011;9576;47.792;9.628;2023-01-04T00:29:32;68.68;;;21.83;;
18887;SDS011;9576;47.792;9.628;2023-01-04T00:32:34;60.70;;;21.98;;
18887;SDS011;9576;47.792;9.628;2023-01-04T00:35:38;57.95;;;22.95;;
18887;SDS011;9576;47.792;9.628;2023-01-04T00:38:40;82.25;;;22.80;;
18887;SDS011;9576;47.792;9.628;2023-01-04T00:41:43;73.55;;;23.73;;
18887;SDS011;9576;47.792;9.628;2023-01-04T00:44:46;66.18;;;23.48;;
18887;SDS011;9576;47.792;9.628;2023-01-04T00:47:47;59.30;;;21.17;;
18887;SDS011;9576;47.792;9.628;2023-01-04T00:50:51;79.55;;;24.13;;
18887;SDS011;9576;47.792;9.628;2023-01-04T00:53:53;51.80;;;23.40;;
18887;SDS011;9576;47.792;9.628;2023-01-04T00:56:56;58.55;;;22.45;;
18887;SDS011;9576;47.792;9.628;2023-01-04T00:59:58;53.97;;;22.23;;
18887;SDS011;9576;47.792;9.628;2023-01-04T01:03:00;59.00;;;21.00;;
18887;SDS011;9576;47.792;9.628;2023-01-04T01:06:04;53.42;;;22.25;;
18887;SDS011;9576;47.792;9.628;2023-01-04T01:09:08;52.03;;;21.77;;
18887;SDS011;9576;47.792;9.628;2023-01-04T01:12:10;66.88;;;22.40;;
18887;SDS011;9576;47.792;9.628;2023-01-04T01:15:12;57.50;;;23.00;;
18887;SDS011;9576;47.792;9.628;2023-01-04T01:18:14;49.33;;;20.65;;
18887;SDS011;9576;47.792;9.628;2023-01-04T01:21:18;53.97;;;21.00;;
18887;SDS011;9576;47.792;9.628;2023-01-04T01:24:21;59.45;;;21.88;;
18887;SDS011;9576;47.792;9.628;2023-01-04T01:27:23;62.20;;;22.23;;
18887;SDS011;9576;47.792;9.628;2023-01-04T01:30:25;54.67;;;21.58;;
18887;SDS011;9576;47.792;9.628;2023-01-04T01:33:27;59.35;;;21.42;;
18887;SDS011;9576;47.792;9.628;2023-01-04T01:36:30;56.97;;;21.98;;
18887;SDS011;9576;47.792;9.628;2023-01-04T01:39:32;62.15;;;21.15;;
18887;SDS011;9576;47.792;9.628;2023-01-04T01:42:34;57.50;;;20.65;;
18887;SDS011;9576;47.792;9.628;2023-01-04T01:45:36;61.97;;;20.70;;
18887;SDS011;9576;47.792;9.628;2023-01-04T01:48:38;56.58;;;18.42;;
18887;SDS011;9576;47.792;9.628;2023-01-04T01:51:42;55.50;;;20.13;;
18887;SDS011;9576;47.792;9.628;2023-01-04T01:54:45;56.85;;;20.40;;
18887;SDS011;9576;47.792;9.628;2023-01-04T01:57:49;65.82;;;20.15;;
18887;SDS011;9576;47.792;9.628;2023-01-04T02:00:53;47.28;;;17.67;;
18887;SDS011;9576;47.792;9.628;2023-01-04T02:03:55;46.50;;;16.73;;
18887;SDS011;9576;47.792;9.628;2023-01-04T02:06:59;48.88;;;17.65;;
18887;SDS011;9576;47.792;9.628;2023-01-04T02:10:02;56.13;;;19.00;;
18887;SDS011;9576;47.792;9.628;2023-01-04T02:13:06;56.63;;;19.17;;
18887;SDS011;9576;47.792;9.628;2023-01-04T02:16:11;53.03;;;16.98;;
18887;SDS011;9576;47.792;9.628;2023-01-04T02:19:26;60.42;;;19.00;;
18887;SDS011;9576;47.792;9.628;2023-01-04T02:22:58;56.80;;;17.83;;
18887;SDS011;9576;47.792;9.628;2023-01-04T02:30:25;50.30;;;16.90;;
18887;SDS011;9576;47.792;9.628;2023-01-04T02:33:50;51.70;;;18.17;;
18887;SDS011;9576;47.792;9.628;2023-01-04T02:37:02;49.65;;;16.20;;
18887;SDS011;9576;47.792;9.628;2023-01-04T02:40:11;47.83;;;17.88;;
18887;SDS011;9576;47.792;9.628;2023-01-04T02:43:22;44.38;;;16.48;;
18887;SDS011;9576;47.792;9.628;2023-01-04T02:46:49;61.38;;;20.10;;
18887;SDS011;9576;47.792;9.628;2023-01-04T02:49:58;50.38;;;17.50;;
18887;SDS011;9576;47.792;9.628;2023-01-04T02:53:19;55.83;;;20.67;;
18887;SDS011;9576;47.792;9.628;2023-01-04T02:56:24;59.80;;;21.10;;
18887;SDS011;9576;47.792;9.628;2023-01-04T03:03:13;67.05;;;21.10;;
18887;SDS011;9576;47.792;9.628;2023-01-04T03:06:42;61.35;;;21.48;;
18887;SDS011;9576;47.792;9.628;2023-01-04T03:09:51;61.40;;;20.92;;
18887;SDS011;9576;47.792;9.628;2023-01-04T03:13:01;65.25;;;20.77;;
18887;SDS011;9576;47.792;9.628;2023-01-04T03:16:13;59.45;;;21.50;;
18887;SDS011;9576;47.792;9.628;2023-01-04T03:19:21;58.58;;;21.65;;
18887;SDS011;9576;47.792;9.628;2023-01-04T03:22:49;50.20;;;19.23;;
18887;SDS011;9576;47.792;9.628;2023-01-04T03:29:33;50.58;;;19.38;;
18887;SDS011;9576;47.792;9.628;2023-01-04T03:32:57;58.72;;;22.48;;
18887;SDS011;9576;47.792;9.628;2023-01-04T03:39:33;55.88;;;21.00;;
18887;SDS011;9576;47.792;9.628;2023-01-04T03:43:02;65.15;;;21.55;;
18887;SDS011;9576;47.792;9.628;2023-01-04T03:46:27;68.03;;;22.55;;
18887;SDS011;9576;47.792;9.628;2023-01-04T03:49:51;65.00;;;22.60;;
18887;SDS011;9576;47.792;9.628;2023-01-04T03:52:58;74.35;;;21.98;;
18887;SDS011;9576;47.792;9.628;2023-01-04T03:56:03;58.80;;;21.77;;
18887;SDS011;9576;47.792;9.628;2023-01-04T03:59:06;66.95;;;20.80;;
18887;SDS011;9576;47.792;9.628;2023-01-04T04:02:09;68.30;;;20.00;;
18887;SDS011;9576;47.792;9.628;2023-01-04T04:05:14;73.25;;;22.08;;
18887;SDS011;9576;47.792;9.628;2023-01-04T04:08:35;60.60;;;21.25;;
18887;SDS011;9576;47.792;9.628;2023-01-04T04:11:38;54.13;;;18.40;;
18887;SDS011;9576;47.792;9.628;2023-01-04T04:14:40;55.30;;;17.23;;
18887;SDS011;9576;47.792;9.628;2023-01-04T04:17:42;69.72;;;19.15;;
18887;SDS011;9576;47.792;9.628;2023-01-04T04:20:44;46.00;;;15.05;;
18887;SDS011;9576;47.792;9.628;2023-01-04T04:23:46;44.88;;;15.93;;
18887;SDS011;9576;47.792;9.628;2023-01-04T04:26:49;51.83;;;16.50;;
18887;SDS011;9576;47.792;9.628;2023-01-04T04:29:53;48.75;;;16.83;;
18887;SDS011;9576;47.792;9.628;2023-01-04T04:32:55;41.50;;;14.88;;
18887;SDS011;9576;47.792;9.628;2023-01-04T04:35:57;41.78;;;15.30;;
18887;SDS011;9576;47.792;9.628;2023-01-04T04:38:59;44.97;;;17.30;;
18887;SDS011;9576;47.792;9.628;2023-01-04T04:42:02;49.65;;;14.63;;
18887;SDS011;9576;47.792;9.628;2023-01-04T04:45:04;48.22;;;14.73;;
18887;SDS011;9576;47.792;9.628;2023-01-04T04:48:07;49.25;;;16.13;;
18887;SDS011;9576;47.792;9.628;2023-01-04T04:51:09;34.80;;;11.38;;
18887;SDS011;9576;47.792;9.628;2023-01-04T04:54:13;36.17;;;12.70;;
18887;SDS011;9576;47.792;9.628;2023-01-04T04:57:19;39.35;;;12.27;;
18887;SDS011;9576;47.792;9.628;2023-01-04T05:00:21;40.80;;;14.05;;
18887;SDS011;9576;47.792;9.628;2023-01-04T05:03:23;40.10;;;15.20;;
18887;SDS011;9576;47.792;9.628;2023-01-04T05:06:25;54.67;;;17.15;;
18887;SDS011;9576;47.792;9.628;2023-01-04T05:09:28;45.53;;;15.93;;
18887;SDS011;9576;47.792;9.628;2023-01-04T05:12:31;43.80;;;14.38;;
18887;SDS011;9576;47.792;9.628;2023-01-04T05:15:51;45.28;;;13.98;;
18887;SDS011;9576;47.792;9.628;2023-01-04T05:18:54;52.20;;;15.20;;
18887;SDS011;9576;47.792;9.628;2023-01-04T05:21:56;52.45;;;16.85;;
18887;SDS011;9576;47.792;9.628;2023-01-04T05:24:58;45.58;;;16.20;;
18887;SDS011;9576;47.792;9.628;2023-01-04T05:28:01;49.83;;;16.17;;
18887;SDS011;9576;47.792;9.628;2023-01-04T05:31:03;59.97;;;16.23;;
18887;SDS011;9576;47.792;9.628;2023-01-04T05:34:04;47.78;;;15.98;;
18887;SDS011;9576;47.792;9.628;2023-01-04T05:37:07;56.50;;;15.57;;
18887;SDS011;9576;47.792;9.628;2023-01-04T05:40:09;47.53;;;15.95;;
18887;SDS011;9576;47.792;9.628;2023-01-04T05:43:13;56.60;;;17.45;;
18887;SDS011;9576;47.792;9.628;2023-01-04T05:46:15;49.92;;;15.23;;
18887;SDS011;9576;47.792;9.628;2023-01-04T05:49:17;48.17;;;16.58;;
18887;SDS011;9576;47.792;9.628;2023-01-04T05:52:19;55.72;;;17.20;;
18887;SDS011;9576;47.792;9.628;2023-01-04T05:55:21;58.80;;;15.73;;
18887;SDS011;9576;47.792;9.628;2023-01-04T05:58:25;49.80;;;16.17;;
18887;SDS011;9576;47.792;9.628;2023-01-04T06:01:27;58.42;;;17.85;;
18887;SDS011;9576;47.792;9.628;2023-01-04T06:04:29;43.60;;;14.95;;
18887;SDS011;9576;47.792;9.628;2023-01-04T06:07:30;46.60;;;16.55;;
18887;SDS011;9576;47.792;9.628;2023-01-04T06:10:33;47.45;;;14.85;;
18887;SDS011;9576;47.792;9.628;2023-01-04T06:13:36;39.95;;;14.20;;
18887;SDS011;9576;47.792;9.628;2023-01-04T06:16:38;44.17;;;16.35;;
18887;SDS011;9576;47.792;9.628;2023-01-04T06:19:40;40.05;;;15.45;;
18887;SDS011;9576;47.792;9.628;2023-01-04T06:22:42;42.58;;;15.15;;
18887;SDS011;9576;47.792;9.628;2023-01-04T06:25:43;36.38;;;13.68;;
18887;SDS011;9576;47.792;9.628;2023-01-04T06:28:47;37.60;;;15.02;;
18887;SDS011;9576;47.792;9.628;2023-01-04T06:31:49;38.80;;;14.32;;
18887;SDS011;9576;47.792;9.628;2023-01-04T06:34:50;29.27;;;13.30;;
18887;SDS011;9576;47.792;9.628;2023-01-04T06:37:52;41.25;;;15.00;;
18887;SDS011;9576;47.792;9.628;2023-01-04T06:40:54;28.50;;;12.95;;
18887;SDS011;9576;47.792;9.628;2023-01-04T06:43:58;33.65;;;12.20;;
18887;SDS011;9576;47.792;9.628;2023-01-04T06:47:00;34.03;;;12.05;;
18887;SDS011;9576;47.792;9.628;2023-01-04T06:50:02;37.90;;;15.05;;
18887;SDS011;9576;47.792;9.628;2023-01-04T06:53:04;34.85;;;14.73;;
18887;SDS011;9576;47.792;9.628;2023-01-04T06:56:07;33.97;;;11.52;;
18887;SDS011;9576;47.792;9.628;2023-01-04T06:59:10;27.80;;;12.88;;
18887;SDS011;9576;47.792;9.628;2023-01-04T07:02:13;34.20;;;12.88;;
18887;SDS011;9576;47.792;9.628;2023-01-04T07:05:15;35.63;;;12.23;;
18887;SDS011;9576;47.792;9.628;2023-01-04T07:08:18;36.88;;;14.80;;
18887;SDS011;9576;47.792;9.628;2023-01-04T07:11:20;47.35;;;13.73;;
18887;SDS011;9576;47.792;9.628;2023-01-04T07:14:23;52.20;;;14.57;;
18887;SDS011;9576;47.792;9.628;2023-01-04T07:17:25;30.40;;;13.50;;
18887;SDS011;9576;47.792;9.628;2023-01-04T07:20:27;33.33;;;13.88;;
18887;SDS011;9576;47.792;9.628;2023-01-04T07:23:29;35.13;;;13.25;;
18887;SDS011;9576;47.792;9.628;2023-01-04T07:26:31;32.17;;;13.70;;
18887;SDS011;9576;47.792;9.628;2023-01-04T07:29:35;38.65;;;13.52;;
18887;SDS011;9576;47.792;9.628;2023-01-04T07:32:37;26.35;;;11.35;;
18887;SDS011;9576;47.792;9.628;2023-01-04T07:35:39;42.80;;;13.43;;
18887;SDS011;9576;47.792;9.628;2023-01-04T07:38:41;35.25;;;13.70;;
18887;SDS011;9576;47.792;9.628;2023-01-04T07:41:43;34.08;;;13.35;;
18887;SDS011;9576;47.792;9.628;2023-01-04T07:44:47;32.00;;;13.73;;
18887;SDS011;9576;47.792;9.628;2023-01-04T07:47:49;28.58;;;12.70;;
18887;SDS011;9576;47.792;9.628;2023-01-04T07:50:51;28.35;;;11.35;;
18887;SDS011;9576;47.792;9.628;2023-01-04T07:53:53;26.77;;;10.90;;
18887;SDS011;9576;47.792;9.628;2023-01-04T07:56:55;28.33;;;11.15;;
18887;SDS011;9576;47.792;9.628;2023-01-04T07:59:58;20.58;;;9.38;;
18887;SDS011;9576;47.792;9.628;2023-01-04T08:03:00;25.45;;;10.52;;
18887;SDS011;9576;47.792;9.628;2023-01-04T08:06:02;31.33;;;13.05;;
18887;SDS011;9576;47.792;9.628;2023-01-04T08:09:05;27.98;;;12.15;;
18887;SDS011;9576;47.792;9.628;2023-01-04T08:12:07;31.48;;;13.10;;
18887;SDS011;9576;47.792;9.628;2023-01-04T08:15:10;23.42;;;12.02;;
18887;SDS011;9576;47.792;9.628;2023-01-04T08:18:13;20.38;;;10.18;;
18887;SDS011;9576;47.792;9.628;2023-01-04T08:21:15;22.42;;;10.80;;
18887;SDS011;9576;47.792;9.628;2023-01-04T08:24:18;26.25;;;10.50;;
18887;SDS011;9576;47.792;9.628;2023-01-04T08:27:20;15.98;;;7.95;;
18887;SDS011;9576;47.792;9.628;2023-01-04T08:30:23;19.60;;;9.27;;
18887;SDS011;9576;47.792;9.628;2023-01-04T08:33:25;17.33;;;8.48;;
18887;SDS011;9576;47.792;9.628;2023-01-04T08:36:28;15.98;;;8.48;;
18887;SDS011;9576;47.792;9.628;2023-01-04T08:39:31;21.05;;;9.88;;
18887;SDS011;9576;47.792;9.628;2023-01-04T08:42:35;18.83;;;9.13;;
18887;SDS011;9576;47.792;9.628;2023-01-04T08:45:38;24.80;;;9.88;;
18887;SDS011;9576;47.792;9.628;2023-01-04T08:48:40;18.60;;;9.15;;
18887;SDS011;9576;47.792;9.628;2023-01-04T08:51:42;22.13;;;10.07;;
18887;SDS011;9576;47.792;9.628;2023-01-04T08:54:44;18.63;;;9.60;;
18887;SDS011;9576;47.792;9.628;2023-01-04T08:57:46;19.23;;;9.40;;
18887;SDS011;9576;47.792;9.628;2023-01-04T09:00:50;34.17;;;10.02;;
18887;SDS011;9576;47.792;9.628;2023-01-04T09:03:51;20.58;;;10.05;;
18887;SDS011;9576;47.792;9.628;2023-01-04T09:06:54;17.25;;;8.35;;
18887;SDS011;9576;47.792;9.628;2023-01-04T09:09:57;16.75;;;9.30;;
18887;SDS011;9576;47.792;9.628;2023-01-04T09:13:00;18.30;;;8.80;;
18887;SDS011;9576;47.792;9.628;2023-01-04T09:16:04;19.73;;;9.18;;
18887;SDS011;9576;47.792;9.628;2023-01-04T09:19:08;21.13;;;10.18;;
18887;SDS011;9576;47.792;9.628;2023-01-04T09:22:10;21.55;;;8.80;;
18887;SDS011;9576;47.792;9.628;2023-01-04T09:25:11;22.15;;;8.98;;
18887;SDS011;9576;47.792;9.628;2023-01-04T09:28:13;20.27;;;9.68;;
18887;SDS011;9576;47.792;9.628;2023-01-04T09:31:18;21.90;;;9.55;;
18887;SDS011;9576;47.792;9.628;2023-01-04T09:34:21;21.25;;;10.00;;
18887;SDS011;9576;47.792;9.628;2023-01-04T09:37:23;20.10;;;9.68;;
18887;SDS011;9576;47.792;9.628;2023-01-04T09:40:26;24.67;;;10.60;;
18887;SDS011;9576;47.792;9.628;2023-01-04T09:43:33;23.33;;;10.40;;
18887;SDS011;9576;47.792;9.628;2023-01-04T09:46:42;20.08;;;9.20;;
18887;SDS011;9576;47.792;9.628;2023-01-04T09:49:49;17.38;;;9.30;;
18887;SDS011;9576;47.792;9.628;2023-01-04T09:52:56;19.08;;;8.35;;
18887;SDS011;9576;47.792;9.628;2023-01-04T09:56:06;18.92;;;8.63;;
18887;SDS011;9576;47.792;9.628;2023-01-04T09:59:12;21.27;;;8.82;;
18887;SDS011;9576;47.792;9.628;2023-01-04T10:02:20;13.82;;;6.80;;
18887;SDS011;9576;47.792;9.628;2023-01-04T10:05:30;17.42;;;6.75;;
18887;SDS011;9576;47.792;9.628;2023-01-04T10:08:33;21.63;;;10.18;;
18887;SDS011;9576;47.792;9.628;2023-01-04T10:11:39;14.73;;;8.30;;
18887;SDS011;9576;47.792;9.628;2023-01-04T10:14:53;14.80;;;7.60;;
18887;SDS011;9576;47.792;9.628;2023-01-04T10:18:17;17.30;;;8.85;;
18887;SDS011;9576;47.792;9.628;2023-01-04T10:21:27;18.33;;;8.63;;
18887;SDS011;9576;47.792;9.628;2023-01-04T10:24:39;15.05;;;7.05;;
18887;SDS011;9576;47.792;9.628;2023-01-04T10:27:49;14.77;;;6.95;;
18887;SDS011;9576;47.792;9.628;2023-01-04T10:30:58;14.27;;;8.35;;
18887;SDS011;9576;47.792;9.628;2023-01-04T10:34:12;14.93;;;6.57;;
18887;SDS011;9576;47.792;9.628;2023-01-04T10:37:22;14.48;;;7.78;;
18887;SDS011;9576;47.792;9.628;2023-01-04T10:40:27;18.52;;;7.65;;
18887;SDS011;9576;47.792;9.628;2023-01-04T10:46:39;14.45;;;7.47;;
18887;SDS011;9576;47.792;9.628;2023-01-04T10:49:50;15.23;;;5.38;;
18887;SDS011;9576;47.792;9.628;2023-01-04T10:52:57;13.73;;;6.43;;
18887;SDS011;9576;47.792;9.628;2023-01-04T10:56:07;13.43;;;6.22;;
18887;SDS011;9576;47.792;9.628;2023-01-04T10:59:13;20.90;;;7.60;;
18887;SDS011;9576;47.792;9.628;2023-01-04T11:02:21;10.93;;;6.38;;
18887;SDS011;9576;47.792;9.628;2023-01-04T11:05:31;19.95;;;6.18;;
18887;SDS011;9576;47.792;9.628;2023-01-04T11:08:40;16.50;;;7.43;;
18887;SDS011;9576;47.792;9.628;2023-01-04T11:11:45;13.55;;;6.97;;
18887;SDS011;9576;47.792;9.628;2023-01-04T11:14:50;14.68;;;7.07;;
18887;SDS011;9576;47.792;9.628;2023-01-04T11:17:53;11.55;;;5.75;;
18887;SDS011;9576;47.792;9.628;2023-01-04T11:20:56;10.82;;;6.45;;
18887;SDS011;9576;47.792;9.628;2023-01-04T11:23:58;17.67;;;6.73;;
18887;SDS011;9576;47.792;9.628;2023-01-04T11:27:04;15.95;;;6.82;;
18887;SDS011;9576;47.792;9.628;2023-01-04T11:30:13;9.30;;;5.25;;
18887;SDS011;9576;47.792;9.628;2023-01-04T11:33:18;10.73;;;5.70;;
18887;SDS011;9576;47.792;9.628;2023-01-04T11:36:32;11.70;;;5.95;;
18887;SDS011;9576;47.792;9.628;2023-01-04T11:39:36;14.40;;;8.18;;
18887;SDS011;9576;47.792;9.628;2023-01-04T11:42:38;17.52;;;6.95;;
18887;SDS011;9576;47.792;9.628;2023-01-04T11:45:40;9.13;;;5.35;;
18887;SDS011;9576;47.792;9.628;2023-01-04T11:48:54;23.40;;;6.70;;
18887;SDS011;9576;47.792;9.628;2023-01-04T11:51:57;11.73;;;6.18;;
18887;SDS011;9576;47.792;9.628;2023-01-04T11:55:15;13.90;;;5.53;;
18887;SDS011;9576;47.792;9.628;2023-01-04T11:58:18;16.00;;;6.22;;
18887;SDS011;9576;47.792;9.628;2023-01-04T12:01:21;13.20;;;7.10;;
18887;SDS011;9576;47.792;9.628;2023-01-04T12:04:25;12.02;;;5.28;;
18887;SDS011;9576;47.792;9.628;2023-01-04T12:07:30;10.93;;;5.63;;
18887;SDS011;9576;47.792;9.628;2023-01-04T12:10:33;12.30;;;5.97;;
18887;SDS011;9576;47.792;9.628;2023-01-04T12:13:35;9.95;;;4.97;;
18887;SDS011;9576;47.792;9.628;2023-01-04T12:16:41;11.43;;;5.45;;
18887;SDS011;9576;47.792;9.628;2023-01-04T12:19:47;9.68;;;5.00;;
18887;SDS011;9576;47.792;9.628;2023-01-04T12:22:54;9.05;;;4.93;;
18887;SDS011;9576;47.792;9.628;2023-01-04T12:25:56;18.15;;;5.93;;
18887;SDS011;9576;47.792;9.628;2023-01-04T12:32:38;8.23;;;4.53;;
18887;SDS011;9576;47.792;9.628;2023-01-04T12:39:11;8.05;;;4.53;;
18887;SDS011;9576;47.792;9.628;2023-01-04T12:42:38;10.57;;;4.13;;
18887;SDS011;9576;47.792;9.628;2023-01-04T12:46:39;11.52;;;4.25;;
18887;SDS011;9576;47.792;9.628;2023-01-04T12:50:00;8.55;;;4.93;;
18887;SDS011;9576;47.792;9.628;2023-01-04T12:53:03;13.37;;;6.33;;
18887;SDS011;9576;47.792;9.628;2023-01-04T12:56:06;7.28;;;4.60;;
18887;SDS011;9576;47.792;9.628;2023-01-04T12:59:09;8.75;;;4.30;;
18887;SDS011;9576;47.792;9.628;2023-01-04T13:05:29;12.43;;;4.75;;
18887;SDS011;9576;47.792;9.628;2023-01-04T13:08:38;7.35;;;4.20;;
18887;SDS011;9576;47.792;9.628;2023-01-04T13:11:53;12.05;;;4.38;;
18887;SDS011;9576;47.792;9.628;2023-01-04T13:15:10;7.88;;;4.05;;
18887;SDS011;9576;47.792;9.628;2023-01-04T13:18:33;7.45;;;4.18;;
18887;SDS011;9576;47.792;9.628;2023-01-04T13:21:37;7.95;;;4.30;;
18887;SDS011;9576;47.792;9.628;2023-01-04T13:24:41;15.90;;;4.78;;
18887;SDS011;9576;47.792;9.628;2023-01-04T13:27:59;15.87;;;4.30;;
18887;SDS011;9576;47.792;9.628;2023-01-04T13:31:02;10.93;;;4.97;;
18887;SDS011;9576;47.792;9.628;2023-01-04T13:34:04;10.18;;;4.78;;
18887;SDS011;9576;47.792;9.628;2023-01-04T13:37:10;11.95;;;7.00;;
18887;SDS011;9576;47.792;9.628;2023-01-04T13:40:23;11.80;;;6.15;;
18887;SDS011;9576;47.792;9.628;2023-01-04T13:46:56;11.68;;;4.88;;
18887;SDS011;9576;47.792;9.628;2023-01-04T13:49:59;9.32;;;4.45;;
18887;SDS011;9576;47.792;9.628;2023-01-04T13:53:02;15.27;;;5.65;;
18887;SDS011;9576;47.792;9.628;2023-01-04T13:56:05;9.18;;;4.57;;
18887;SDS011;9576;47.792;9.628;2023-01-04T13:59:18;17.30;;;6.85;;
18887;SDS011;9576;47.792;9.628;2023-01-04T14:02:20;20.77;;;8.18;;
18887;SDS011;9576;47.792;9.628;2023-01-04T14:05:22;4.85;;;3.00;;
18887;SDS011;9576;47.792;9.628;2023-01-04T14:08:26;10.75;;;4.38;;
18887;SDS011;9576;47.792;9.628;2023-01-04T14:11:34;6.90;;;4.50;;
18887;SDS011;9576;47.792;9.628;2023-01-04T14:15:03;7.60;;;4.50;;
18887;SDS011;9576;47.792;9.628;2023-01-04T14:21:34;9.43;;;4.13;;
18887;SDS011;9576;47.792;9.628;2023-01-04T14:24:37;7.53;;;4.10;;
18887;SDS011;9576;47.792;9.628;2023-01-04T14:27:39;11.70;;;4.82;;
18887;SDS011;9576;47.792;9.628;2023-01-04T14:30:44;9.25;;;4.03;;
18887;SDS011;9576;47.792;9.628;2023-01-04T14:33:46;7.45;;;3.90;;
18887;SDS011;9576;47.792;9.628;2023-01-04T14:36:50;7.03;;;4.22;;
18887;SDS011;9576;47.792;9.628;2023-01-04T14:40:12;8.00;;;3.47;;
18887;SDS011;9576;47.792;9.628;2023-01-04T14:43:31;9.07;;;3.83;;
18887;SDS011;9576;47.792;9.628;2023-01-04T14:46:36;7.97;;;4.43;;
18887;SDS011;9576;47.792;9.628;2023-01-04T14:49:38;7.57;;;3.72;;
18887;SDS011;9576;47.792;9.628;2023-01-04T14:52:40;5.43;;;2.88;;
18887;SDS011;9576;47.792;9.628;2023-01-04T14:55:42;5.25;;;2.97;;
18887;SDS011;9576;47.792;9.628;2023-01-04T14:58:44;10.85;;;3.42;;
18887;SDS011;9576;47.792;9.628;2023-01-04T15:01:48;8.60;;;3.53;;
18887;SDS011;9576;47.792;9.628;2023-01-04T15:04:50;20.60;;;3.67;;
18887;SDS011;9576;47.792;9.628;2023-01-04T15:07:52;7.43;;;3.35;;
18887;SDS011;9576;47.792;9.628;2023-01-04T15:10:54;4.60;;;3.20;;
18887;SDS011;9576;47.792;9.628;2023-01-04T15:13:56;5.97;;;3.00;;
18887;SDS011;9576;47.792;9.628;2023-01-04T15:16:59;8.95;;;3.25;;
18887;SDS011;9576;47.792;9.628;2023-01-04T15:20:01;9.15;;;3.97;;
18887;SDS011;9576;47.792;9.628;2023-01-04T15:23:03;7.88;;;3.90;;
18887;SDS011;9576;47.792;9.628;2023-01-04T15:26:05;7.13;;;3.83;;
18887;SDS011;9576;47.792;9.628;2023-01-04T15:29:08;7.07;;;3.03;;
18887;SDS011;9576;47.792;9.628;2023-01-04T15:32:12;5.55;;;3.45;;
18887;SDS011;9576;47.792;9.628;2023-01-04T15:35:14;5.88;;;3.85;;
18887;SDS011;9576;47.792;9.628;2023-01-04T15:38:16;8.25;;;4.32;;
18887;SDS011;9576;47.792;9.628;2023-01-04T15:41:18;5.70;;;2.65;;
18887;SDS011;9576;47.792;9.628;2023-01-04T15:44:38;8.05;;;2.97;;
18887;SDS011;9576;47.792;9.628;2023-01-04T15:47:41;5.72;;;2.88;;
18887;SDS011;9576;47.792;9.628;2023-01-04T15:50:43;4.05;;;2.85;;
18887;SDS011;9576;47.792;9.628;2023-01-04T15:53:45;5.40;;;3.35;;
18887;SDS011;9576;47.792;9.628;2023-01-04T15:56:49;7.68;;;3.03;;
18887;SDS011;9576;47.792;9.628;2023-01-04T15:59:52;12.20;;;4.28;;
18887;SDS011;9576;47.792;9.628;2023-01-04T16:02:55;6.20;;;3.25;;
18887;SDS011;9576;47.792;9.628;2023-01-04T16:06:02;6.63;;;3.28;;
18887;SDS011;9576;47.792;9.628;2023-01-04T16:09:05;7.07;;;3.42;;
18887;SDS011;9576;47.792;9.628;2023-01-04T16:12:07;8.07;;;3.08;;
18887;SDS011;9576;47.792;9.628;2023-01-04T16:15:26;3.63;;;2.15;;
18887;SDS011;9576;47.792;9.628;2023-01-04T16:18:30;4.93;;;2.58;;
18887;SDS011;9576;47.792;9.628;2023-01-04T16:21:33;4.70;;;2.20;;
18887;SDS011;9576;47.792;9.628;2023-01-04T16:24:34;9.70;;;3.25;;
18887;SDS011;9576;47.792;9.628;2023-01-04T16:27:36;7.60;;;2.90;;
18887;SDS011;9576;47.792;9.628;2023-01-04T16:30:38;5.93;;;2.80;;
18887;SDS011;9576;47.792;9.628;2023-01-04T16:33:42;7.90;;;3.92;;
18887;SDS011;9576;47.792;9.628;2023-01-04T16:36:47;4.25;;;2.45;;
18887;SDS011;9576;47.792;9.628;2023-01-04T16:39:49;7.82;;;3.30;;
18887;SDS011;9576;47.792;9.628;2023-01-04T16:42:51;7.35;;;3.10;;
18887;SDS011;9576;47.792;9.628;2023-01-04T16:46:09;9.18;;;3.53;;
18887;SDS011;9576;47.792;9.628;2023-01-04T16:49:22;8.38;;;3.58;;
18887;SDS011;9576;47.792;9.628;2023-01-04T16:52:24;3.05;;;1.95;;
18887;SDS011;9576;47.792;9.628;2023-01-04T16:55:29;12.13;;;3.08;;
18887;SDS011;9576;47.792;9.628;2023-01-04T16:58:31;3.83;;;2.72;;
18887;SDS011;9576;47.792;9.628;2023-01-04T17:01:33;4.95;;;2.28;;
18887;SDS011;9576;47.792;9.628;2023-01-04T17:04:37;5.93;;;2.70;;
18887;SDS011;9576;47.792;9.628;2023-01-04T17:07:39;5.22;;;3.10;;
18887;SDS011;9576;47.792;9.628;2023-01-04T17:10:41;5.75;;;2.60;;
18887;SDS011;9576;47.792;9.628;2023-01-04T17:13:43;3.67;;;2.47;;
18887;SDS011;9576;47.792;9.628;2023-01-04T17:16:45;5.20;;;3.22;;
18887;SDS011;9576;47.792;9.628;2023-01-04T17:19:48;5.70;;;2.00;;
18887;SDS011;9576;47.792;9.628;2023-01-04T17:22:50;6.82;;;2.38;;
18887;SDS011;9576;47.792;9.628;2023-01-04T17:25:52;8.63;;;2.90;;
18887;SDS011;9576;47.792;9.628;2023-01-04T17:29:00;5.20;;;3.33;;
18887;SDS011;9576;47.792;9.628;2023-01-04T17:32:02;4.10;;;2.22;;
18887;SDS011;9576;47.792;9.628;2023-01-04T17:35:06;4.18;;;2.13;;
18887;SDS011;9576;47.792;9.628;2023-01-04T17:38:08;3.07;;;2.00;;
18887;SDS011;9576;47.792;9.628;2023-01-04T17:41:11;10.23;;;3.72;;
18887;SDS011;9576;47.792;9.628;2023-01-04T17:44:14;6.72;;;2.42;;
18887;SDS011;9576;47.792;9.628;2023-01-04T17:47:16;5.20;;;2.63;;
18887;SDS011;9576;47.792;9.628;2023-01-04T17:50:19;4.15;;;2.28;;
18887;SDS011;9576;47.792;9.628;2023-01-04T17:53:22;3.15;;;2.00;;
18887;SDS011;9576;47.792;9.628;2023-01-04T17:56:24;7.80;;;2.22;;
18887;SDS011;9576;47.792;9.628;2023-01-04T17:59:27;5.17;;;2.13;;
18887;SDS011;9576;47.792;9.628;2023-01-04T18:02:30;4.78;;;2.10;;
18887;SDS011;9576;47.792;9.628;2023-01-04T18:05:34;3.40;;;1.90;;
18887;SDS011;9576;47.792;9.628;2023-01-04T18:08:36;4.93;;;2.55;;
18887;SDS011;9576;47.792;9.628;2023-01-04T18:11:38;5.95;;;2.65;;
18887;SDS011;9576;47.792;9.628;2023-01-04T18:14:42;5.60;;;2.30;;
18887;SDS011;9576;47.792;9.628;2023-01-04T18:17:44;4.18;;;2.58;;
18887;SDS011;9576;47.792;9.628;2023-01-04T18:20:47;4.82;;;2.85;;
18887;SDS011;9576;47.792;9.628;2023-01-04T18:23:49;2.65;;;1.60;;
18887;SDS011;9576;47.792;9.628;2023-01-04T18:26:51;11.45;;;2.80;;
18887;SDS011;9576;47.792;9.628;2023-01-04T18:29:53;4.85;;;2.15;;
18887;SDS011;9576;47.792;9.628;2023-01-04T18:32:56;6.55;;;2.63;;
18887;SDS011;9576;47.792;9.628;2023-01-04T18:36:01;4.28;;;2.47;;
18887;SDS011;9576;47.792;9.628;2023-01-04T18:39:04;5.25;;;2.38;;
18887;SDS011;9576;47.792;9.628;2023-01-04T18:42:06;3.60;;;2.45;;
18887;SDS011;9576;47.792;9.628;2023-01-04T18:45:08;10.38;;;2.70;;
18887;SDS011;9576;47.792;9.628;2023-01-04T18:48:11;5.90;;;2.65;;
18887;SDS011;9576;47.792;9.628;2023-01-04T18:51:14;3.83;;;1.95;;
18887;SDS011;9576;47.792;9.628;2023-01-04T18:54:16;4.88;;;2.88;;
18887;SDS011;9576;47.792;9.628;2023-01-04T18:57:19;4.90;;;2.97;;
18887;SDS011;9576;47.792;9.628;2023-01-04T19:00:21;5.78;;;2.53;;
18887;SDS011;9576;47.792;9.628;2023-01-04T19:03:28;4.80;;;2.58;;
18887;SDS011;9576;47.792;9.628;2023-01-04T19:06:32;8.60;;;2.55;;
18887;SDS011;9576;47.792;9.628;2023-01-04T19:09:34;5.10;;;2.10;;